createdAt,value
2017-11-30T00:01:43.021Z,3.10
2017-11-30T00:04:09.905Z,3.10
2017-11-30T00:06:36.832Z,3.10
2017-11-30T00:09:03.787Z,3.00
2017-11-30T00:11:30.656Z,3.00
2017-11-30T00:13:57.557Z,3.00
2017-11-30T00:16:25.188Z,3.10
2017-11-30T00:18:52.088Z,3.10
2017-11-30T00:21:18.992Z,3.20
2017-11-30T00:23:45.852Z,3.20
2017-11-30T00:26:13.064Z,3.40
2017-11-30T00:28:39.973Z,3.50
2017-11-30T00:31:07.558Z,3.20
2017-11-30T00:33:34.487Z,3.20
2017-11-30T00:36:01.380Z,3.20
2017-11-30T00:38:28.259Z,3.20
2017-11-30T00:40:55.920Z,3.40
2017-11-30T00:43:30.964Z,3.30
2017-11-30T00:45:57.883Z,3.40
2017-11-30T00:48:24.779Z,3.40
2017-11-30T00:50:51.719Z,3.40
2017-11-30T00:53:18.604Z,3.40
2017-11-30T00:55:46.290Z,3.30
2017-11-30T00:58:13.905Z,3.30
2017-11-30T01:00:40.835Z,3.20
2017-11-30T01:03:07.715Z,3.20
2017-11-30T01:05:35.372Z,3.30
2017-11-30T01:08:02.246Z,3.30
2017-11-30T01:10:29.092Z,3.30
2017-11-30T01:12:56.685Z,3.20
2017-11-30T01:15:23.544Z,3.20
2017-11-30T01:17:50.456Z,3.20
2017-11-30T01:20:17.324Z,3.20
2017-11-30T01:22:44.174Z,3.30
2017-11-30T01:25:11.065Z,3.20
2017-11-30T01:27:37.972Z,3.20
2017-11-30T01:30:04.800Z,3.20
2017-11-30T01:32:31.680Z,3.20
2017-11-30T01:34:59.339Z,3.20
2017-11-30T01:37:26.939Z,3.10
2017-11-30T01:39:53.796Z,3.10
2017-11-30T01:42:20.661Z,3.20
2017-11-30T01:44:47.531Z,3.20
2017-11-30T01:47:14.416Z,3.20
2017-11-30T01:49:41.289Z,3.30
2017-11-30T01:52:08.175Z,3.30
2017-11-30T01:54:35.225Z,3.30
2017-11-30T01:57:02.206Z,3.30
2017-11-30T01:59:29.090Z,3.30
2017-11-30T02:01:56.689Z,3.30
2017-11-30T02:04:23.620Z,3.20
2017-11-30T02:06:50.480Z,3.30
2017-11-30T02:09:17.328Z,3.30
2017-11-30T02:11:44.224Z,3.30
2017-11-30T02:14:11.856Z,3.30
2017-11-30T02:16:39.494Z,3.30
2017-11-30T02:19:06.372Z,3.30
2017-11-30T02:21:34.077Z,3.30
2017-11-30T02:24:01.697Z,3.30
2017-11-30T02:26:28.630Z,3.30
2017-11-30T02:28:55.553Z,3.40
2017-11-30T02:31:22.444Z,3.50
2017-11-30T02:33:49.363Z,3.40
2017-11-30T02:36:16.278Z,3.30
2017-11-30T02:38:43.172Z,3.40
2017-11-30T02:41:10.117Z,3.30
2017-11-30T02:43:37.789Z,3.30
2017-11-30T02:46:05.469Z,3.30
2017-11-30T02:48:33.125Z,3.30
2017-11-30T02:51:00.783Z,3.40
2017-11-30T02:53:28.420Z,3.40
2017-11-30T02:55:55.361Z,3.40
2017-11-30T02:58:22.277Z,3.50
2017-11-30T03:00:49.209Z,3.50
2017-11-30T03:03:16.148Z,3.50
2017-11-30T03:05:43.053Z,3.50
2017-11-30T03:08:10.724Z,3.50
2017-11-30T03:10:37.613Z,3.40
2017-11-30T03:13:04.566Z,3.40
2017-11-30T03:15:31.473Z,3.40
2017-11-30T03:17:58.381Z,3.40
2017-11-30T03:20:25.261Z,3.50
2017-11-30T03:22:52.176Z,3.40
2017-11-30T03:25:19.088Z,3.50
2017-11-30T03:27:45.994Z,3.40
2017-11-30T03:30:12.885Z,3.50
2017-11-30T03:32:39.764Z,3.40
2017-11-30T03:35:07.408Z,3.40
2017-11-30T03:37:34.320Z,3.40
2017-11-30T03:40:01.195Z,3.40
2017-11-30T03:42:28.073Z,3.40
2017-11-30T03:44:54.974Z,3.30
2017-11-30T03:47:21.869Z,3.20
2017-11-30T03:49:48.749Z,3.10
2017-11-30T03:52:15.637Z,3.10
2017-11-30T03:54:43.319Z,3.20
2017-11-30T03:57:10.916Z,3.40
2017-11-30T03:59:37.819Z,3.40
2017-11-30T04:02:04.739Z,3.50
2017-11-30T04:04:32.373Z,3.40
2017-11-30T04:06:59.259Z,3.40
2017-11-30T04:09:26.141Z,3.40
2017-11-30T04:11:52.997Z,3.30
2017-11-30T04:14:19.878Z,3.30
2017-11-30T04:16:46.773Z,3.30
2017-11-30T04:19:14.368Z,3.30
2017-11-30T04:21:41.973Z,3.30
2017-11-30T04:24:09.555Z,3.40
2017-11-30T04:26:36.388Z,3.30
2017-11-30T04:29:03.284Z,3.40
2017-11-30T04:31:30.909Z,3.30
2017-11-30T04:33:57.821Z,3.30
2017-11-30T04:36:24.728Z,3.20
2017-11-30T04:38:51.572Z,3.30
2017-11-30T04:41:18.524Z,3.40
2017-11-30T04:43:45.422Z,3.30
2017-11-30T04:46:12.285Z,3.30
2017-11-30T04:48:39.936Z,3.40
2017-11-30T04:51:06.816Z,3.40
2017-11-30T04:53:34.664Z,3.40
2017-11-30T04:56:01.580Z,3.40
2017-11-30T04:58:28.477Z,3.40
2017-11-30T05:00:56.137Z,3.50
2017-11-30T05:03:22.999Z,3.50
2017-11-30T05:05:50.607Z,3.50
2017-11-30T05:08:17.509Z,3.40
2017-11-30T05:10:44.415Z,3.40
2017-11-30T05:13:12.090Z,3.40
2017-11-30T05:15:39.001Z,3.40
2017-11-30T05:18:05.916Z,3.20
2017-11-30T05:20:39.806Z,3.00
2017-11-30T05:23:06.855Z,3.00
2017-11-30T05:25:34.501Z,3.00
2017-11-30T05:28:01.393Z,3.00
2017-11-30T05:30:28.328Z,3.10
2017-11-30T05:32:55.254Z,3.10
2017-11-30T05:35:22.136Z,3.20
2017-11-30T05:37:49.009Z,3.30
2017-11-30T05:40:16.649Z,3.30
2017-11-30T05:42:43.544Z,3.30
2017-11-30T05:45:10.440Z,3.30
2017-11-30T05:47:37.336Z,3.30
2017-11-30T05:50:04.181Z,3.30
2017-11-30T05:52:31.053Z,3.40
2017-11-30T05:54:58.539Z,3.30
2017-11-30T05:57:25.441Z,3.20
2017-11-30T05:59:52.349Z,3.20
2017-11-30T06:02:19.280Z,3.20
2017-11-30T06:04:47.013Z,3.20
2017-11-30T06:07:13.983Z,3.20
2017-11-30T06:09:40.844Z,3.30
2017-11-30T06:12:07.680Z,3.40
2017-11-30T06:14:34.523Z,3.40
2017-11-30T06:17:01.396Z,3.20
2017-11-30T06:19:28.252Z,3.20
2017-11-30T06:21:55.123Z,3.20
2017-11-30T06:24:22.817Z,3.30
2017-11-30T06:26:49.674Z,3.30
2017-11-30T06:29:16.541Z,3.20
2017-11-30T06:31:43.412Z,3.30
2017-11-30T06:34:10.365Z,3.20
2017-11-30T06:36:37.212Z,3.30
2017-11-30T06:39:04.820Z,2.80
2017-11-30T06:41:31.757Z,2.80
2017-11-30T06:43:58.705Z,2.90
2017-11-30T06:46:25.637Z,3.10
2017-11-30T06:48:52.557Z,3.00
2017-11-30T06:51:19.456Z,3.10
2017-11-30T06:53:46.347Z,3.20
2017-11-30T06:56:13.326Z,3.20
2017-11-30T06:58:40.306Z,3.30
2017-11-30T07:01:07.172Z,3.30
2017-11-30T07:03:34.022Z,3.00
2017-11-30T07:06:00.985Z,3.00
2017-11-30T07:08:27.842Z,3.00
2017-11-30T07:10:55.077Z,3.10
2017-11-30T07:13:22.020Z,3.00
2017-11-30T07:15:48.910Z,2.80
2017-11-30T07:18:15.803Z,2.80
2017-11-30T07:20:43.426Z,2.60
2017-11-30T07:23:11.013Z,2.60
2017-11-30T07:25:37.897Z,2.60
2017-11-30T07:28:04.764Z,2.70
2017-11-30T07:30:31.661Z,2.80
2017-11-30T07:32:59.306Z,3.00
2017-11-30T07:35:26.224Z,3.00
2017-11-30T07:37:53.410Z,3.10
2017-11-30T07:40:21.617Z,3.10
2017-11-30T07:42:48.898Z,3.10
2017-11-30T07:45:16.620Z,3.00
2017-11-30T07:47:43.992Z,3.00
2017-11-30T07:50:12.061Z,3.00
2017-11-30T07:52:39.975Z,3.20
2017-11-30T07:55:07.733Z,3.30
2017-11-30T07:57:34.952Z,3.30
2017-11-30T08:00:03.853Z,3.20
2017-11-30T08:02:31.508Z,3.20
2017-11-30T08:04:59.209Z,3.30
2017-11-30T08:07:28.085Z,3.40
2017-11-30T08:09:55.468Z,3.40
2017-11-30T08:12:22.539Z,3.50
2017-11-30T08:14:50.083Z,3.50
2017-11-30T08:17:17.735Z,3.50
2017-11-30T08:19:45.191Z,3.50
2017-11-30T08:22:12.481Z,3.40
2017-11-30T08:24:39.795Z,3.40
2017-11-30T08:27:07.192Z,3.50
2017-11-30T08:29:34.620Z,3.50
2017-11-30T08:32:02.195Z,3.50
2017-11-30T08:37:26.448Z,3.60
2017-11-30T08:39:54.697Z,3.30
2017-11-30T08:42:22.030Z,3.30
2017-11-30T08:44:49.298Z,3.30
2017-11-30T08:47:17.175Z,3.30
2017-11-30T08:49:44.374Z,3.40
2017-11-30T08:52:11.310Z,3.60
2017-11-30T08:54:38.707Z,3.50
2017-11-30T08:57:06.711Z,3.50
2017-11-30T08:59:34.221Z,3.40
2017-11-30T09:02:01.715Z,3.40
2017-11-30T09:04:29.436Z,3.50
2017-11-30T09:06:57.738Z,3.60
2017-11-30T09:09:25.038Z,3.60
2017-11-30T09:11:52.065Z,3.70
2017-11-30T09:14:20.102Z,3.80
2017-11-30T09:16:47.453Z,3.80
2017-11-30T09:19:14.549Z,3.80
2017-11-30T09:21:41.812Z,3.90
2017-11-30T09:24:08.709Z,4.00
2017-11-30T09:26:35.574Z,4.20
2017-11-30T09:29:02.460Z,4.40
2017-11-30T09:31:30.077Z,4.90
2017-11-30T09:33:57.704Z,5.00
2017-11-30T09:36:24.630Z,5.00
2017-11-30T09:38:52.301Z,5.10
2017-11-30T09:41:19.178Z,5.10
2017-11-30T09:43:46.085Z,5.20
2017-11-30T09:46:13.745Z,5.20
2017-11-30T09:48:40.624Z,5.20
2017-11-30T09:51:07.501Z,5.30
2017-11-30T09:53:34.353Z,5.40
2017-11-30T09:56:01.238Z,5.50
2017-11-30T09:58:28.141Z,5.40
2017-11-30T10:00:55.025Z,5.10
2017-11-30T10:03:21.892Z,4.90
2017-11-30T10:05:48.801Z,5.00
2017-11-30T10:08:16.417Z,4.80
2017-11-30T10:10:43.289Z,4.80
2017-11-30T10:13:10.938Z,4.90
2017-11-30T10:15:37.805Z,4.90
2017-11-30T10:18:04.649Z,5.00
2017-11-30T10:20:32.480Z,4.90
2017-11-30T10:22:59.761Z,4.90
2017-11-30T10:25:27.215Z,4.90
2017-11-30T10:27:54.725Z,4.80
2017-11-30T10:30:22.007Z,4.70
2017-11-30T10:32:49.614Z,4.50
2017-11-30T10:35:17.243Z,4.50
2017-11-30T10:37:44.631Z,4.30
2017-11-30T10:40:12.023Z,4.30
2017-11-30T10:42:39.245Z,4.10
2017-11-30T10:45:06.359Z,4.20
2017-11-30T10:47:34.135Z,3.90
2017-11-30T10:50:01.267Z,3.90
2017-11-30T10:52:31.691Z,3.90
2017-11-30T10:54:59.754Z,4.40
2017-11-30T10:57:27.936Z,4.40
2017-11-30T10:59:55.005Z,4.40
2017-11-30T11:02:22.633Z,4.50
2017-11-30T11:04:49.549Z,4.50
2017-11-30T11:07:16.451Z,4.50
2017-11-30T11:09:44.109Z,4.80
2017-11-30T11:12:12.298Z,4.80
2017-11-30T11:14:39.445Z,5.00
2017-11-30T11:17:06.442Z,5.00
2017-11-30T11:19:33.525Z,5.10
2017-11-30T11:22:00.562Z,5.00
2017-11-30T11:24:27.850Z,5.20
2017-11-30T11:26:55.060Z,5.40
2017-11-30T11:29:22.206Z,5.70
2017-11-30T11:31:49.401Z,5.90
2017-11-30T11:34:16.619Z,6.00
2017-11-30T11:36:43.651Z,6.10
2017-11-30T11:39:10.969Z,6.20
2017-11-30T11:41:38.369Z,6.10
2017-11-30T11:44:05.478Z,5.90
2017-11-30T11:46:32.634Z,6.10
2017-11-30T11:48:59.742Z,6.50
2017-11-30T11:51:26.773Z,6.70
2017-11-30T11:53:53.953Z,6.70
2017-11-30T11:56:21.944Z,6.90
2017-11-30T11:58:49.673Z,7.00
2017-11-30T12:01:16.817Z,7.00
2017-11-30T12:03:44.371Z,6.80
2017-11-30T12:06:11.517Z,6.70
2017-11-30T12:08:38.507Z,6.60
2017-11-30T12:11:05.673Z,6.20
2017-11-30T12:13:33.240Z,6.50
2017-11-30T12:16:00.476Z,6.90
2017-11-30T12:18:28.402Z,8.50
2017-11-30T12:20:55.421Z,8.50
2017-11-30T12:23:23.160Z,11.30
2017-11-30T12:25:50.260Z,11.30
2017-11-30T12:28:17.971Z,13.10
2017-11-30T12:30:44.981Z,13.10
2017-11-30T12:33:13.137Z,13.60
2017-11-30T12:35:40.334Z,13.30
2017-11-30T12:38:07.749Z,13.50
2017-11-30T12:40:35.719Z,11.30
2017-11-30T12:43:02.869Z,11.20
2017-11-30T12:45:30.132Z,10.30
2017-11-30T12:47:57.377Z,9.60
2017-11-30T12:50:25.407Z,8.00
2017-11-30T12:52:52.367Z,8.00
2017-11-30T12:55:19.450Z,7.70
2017-11-30T12:57:46.370Z,7.50
2017-11-30T13:00:13.331Z,7.30
2017-11-30T13:02:40.208Z,7.10
2017-11-30T13:05:07.147Z,6.80
2017-11-30T13:07:34.024Z,6.40
2017-11-30T13:10:01.680Z,6.10
2017-11-30T13:12:28.596Z,6.10
2017-11-30T13:14:55.543Z,5.90
2017-11-30T13:17:22.455Z,6.00
2017-11-30T13:19:50.073Z,6.00
2017-11-30T13:22:16.983Z,6.00
2017-11-30T13:24:44.615Z,6.10
2017-11-30T13:27:11.551Z,6.10
2017-11-30T13:29:38.443Z,6.10
2017-11-30T13:32:05.312Z,6.10
2017-11-30T13:34:32.266Z,6.10
2017-11-30T13:36:59.121Z,6.00
2017-11-30T13:39:25.988Z,6.00
2017-11-30T13:41:53.652Z,6.00
2017-11-30T13:44:20.543Z,5.90
2017-11-30T13:46:47.545Z,5.90
2017-11-30T13:49:15.247Z,5.90
2017-11-30T13:51:42.372Z,5.80
2017-11-30T13:54:10.101Z,5.70
2017-11-30T13:56:37.009Z,5.70
2017-11-30T13:59:04.690Z,5.40
2017-11-30T14:01:32.061Z,5.40
2017-11-30T14:03:58.995Z,5.40
2017-11-30T14:06:25.876Z,5.50
2017-11-30T14:08:52.786Z,5.40
2017-11-30T14:11:19.776Z,5.50
2017-11-30T14:13:46.674Z,5.40
2017-11-30T14:16:13.621Z,5.40
2017-11-30T14:18:40.488Z,5.40
2017-11-30T14:21:07.384Z,5.30
2017-11-30T14:23:34.274Z,5.20
2017-11-30T14:26:01.236Z,5.10
2017-11-30T14:28:28.880Z,4.70
2017-11-30T14:30:56.476Z,4.90
2017-11-30T14:33:23.354Z,4.80
2017-11-30T14:35:50.236Z,4.90
2017-11-30T14:38:17.119Z,4.80
2017-11-30T14:40:43.977Z,4.80
2017-11-30T14:43:10.868Z,4.70
2017-11-30T14:45:37.859Z,4.80
2017-11-30T14:48:04.755Z,4.80
2017-11-30T14:50:31.680Z,4.80
2017-11-30T14:52:58.543Z,4.80
2017-11-30T14:55:26.283Z,4.70
2017-11-30T14:57:53.140Z,4.70
2017-11-30T15:00:20.764Z,4.70
2017-11-30T15:02:47.659Z,4.80
2017-11-30T15:05:15.275Z,4.80
2017-11-30T15:07:42.191Z,4.80
2017-11-30T15:10:09.051Z,4.70
2017-11-30T15:12:35.959Z,4.60
2017-11-30T15:15:02.862Z,4.60
2017-11-30T15:17:29.805Z,4.50
2017-11-30T15:19:57.525Z,4.50
2017-11-30T15:22:24.442Z,4.40
2017-11-30T15:24:51.383Z,4.50
2017-11-30T15:27:19.067Z,4.50
2017-11-30T15:29:46.023Z,4.50
2017-11-30T15:32:12.931Z,4.40
2017-11-30T15:34:40.614Z,4.40
2017-11-30T15:37:07.535Z,4.40
2017-11-30T15:39:35.173Z,4.30
2017-11-30T15:42:02.089Z,4.20
2017-11-30T15:44:29.119Z,4.20
2017-11-30T15:46:56.056Z,4.20
2017-11-30T15:49:23.796Z,4.20
2017-11-30T15:51:50.674Z,4.20
2017-11-30T15:54:17.787Z,4.20
2017-11-30T15:56:44.730Z,4.20
2017-11-30T15:59:12.334Z,4.10
2017-11-30T16:01:39.973Z,4.10
2017-11-30T16:04:06.847Z,4.10
2017-11-30T16:06:33.763Z,4.10
2017-11-30T16:09:01.657Z,4.20
2017-11-30T16:11:29.354Z,4.00
2017-11-30T16:13:56.413Z,4.00
2017-11-30T16:16:24.099Z,4.00
2017-11-30T16:18:51.022Z,4.00
2017-11-30T16:21:17.928Z,4.00
2017-11-30T16:23:44.868Z,3.90
2017-11-30T16:26:11.789Z,4.00
2017-11-30T16:28:38.680Z,3.90
2017-11-30T16:31:05.738Z,4.00
2017-11-30T16:33:32.683Z,4.00
2017-11-30T16:36:00.380Z,3.90
2017-11-30T16:38:27.292Z,3.90
2017-11-30T16:40:54.920Z,3.60
2017-11-30T16:43:21.829Z,3.60
2017-11-30T16:45:49.068Z,3.70
2017-11-30T16:48:16.051Z,3.70
2017-11-30T16:50:42.953Z,3.70
2017-11-30T16:53:09.977Z,3.70
2017-11-30T16:55:36.972Z,3.70
2017-11-30T16:58:03.832Z,3.70
2017-11-30T17:00:31.463Z,3.70
2017-11-30T17:02:58.356Z,3.70
2017-11-30T17:05:26.283Z,3.70
2017-11-30T17:07:53.884Z,3.80
2017-11-30T17:10:20.760Z,3.80
2017-11-30T17:12:48.424Z,3.80
2017-11-30T17:15:16.160Z,3.90
2017-11-30T17:17:43.085Z,3.90
2017-11-30T17:20:09.988Z,3.90
2017-11-30T17:22:37.797Z,3.90
2017-11-30T17:25:05.035Z,3.90
2017-11-30T17:27:31.951Z,3.80
2017-11-30T17:29:58.898Z,3.80
2017-11-30T17:32:26.572Z,3.80
2017-11-30T17:34:53.529Z,3.90
2017-11-30T17:37:20.474Z,3.90
2017-11-30T17:39:47.409Z,3.90
2017-11-30T17:42:14.432Z,3.90
2017-11-30T17:44:41.428Z,3.90
2017-11-30T17:47:08.504Z,3.80
2017-11-30T17:49:36.172Z,3.80
2017-11-30T17:52:03.067Z,3.70
2017-11-30T17:54:30.016Z,3.70
2017-11-30T17:56:56.868Z,3.80
2017-11-30T17:59:23.789Z,3.70
2017-11-30T18:01:50.712Z,3.80
2017-11-30T18:04:18.400Z,3.70
2017-11-30T18:06:45.291Z,3.70
2017-11-30T18:09:12.138Z,3.80
2017-11-30T18:11:39.020Z,3.80
2017-11-30T18:14:05.944Z,3.80
2017-11-30T18:16:32.975Z,3.90
2017-11-30T18:18:59.861Z,3.90
2017-11-30T18:21:26.736Z,4.00
2017-11-30T18:23:53.601Z,4.00
2017-11-30T18:26:20.632Z,4.00
2017-11-30T18:28:47.560Z,3.80
2017-11-30T18:31:14.436Z,3.80
2017-11-30T18:33:41.387Z,3.90
2017-11-30T18:36:09.079Z,4.00
2017-11-30T18:38:36.729Z,3.90
2017-11-30T18:41:03.696Z,3.90
2017-11-30T18:43:30.628Z,4.00
2017-11-30T18:45:57.624Z,3.90
2017-11-30T18:48:24.639Z,3.80
2017-11-30T18:50:51.506Z,3.90
2017-11-30T18:53:18.404Z,3.80
2017-11-30T18:55:46.087Z,3.90
2017-11-30T18:58:12.963Z,3.90
2017-11-30T19:00:39.856Z,3.90
2017-11-30T19:03:06.848Z,4.00
2017-11-30T19:05:33.745Z,4.10
2017-11-30T19:08:01.363Z,4.10
2017-11-30T19:10:28.247Z,4.00
2017-11-30T19:12:55.128Z,4.00
2017-11-30T19:15:22.076Z,4.00
2017-11-30T19:17:49.007Z,4.10
2017-11-30T19:20:15.867Z,4.00
2017-11-30T19:22:42.762Z,4.00
2017-11-30T19:25:12.535Z,4.10
2017-11-30T19:27:39.417Z,4.10
2017-11-30T19:30:06.323Z,4.20
2017-11-30T19:32:33.225Z,4.20
2017-11-30T19:35:00.158Z,4.00
2017-11-30T19:37:27.792Z,4.00
2017-11-30T19:39:54.687Z,4.00
2017-11-30T19:42:21.603Z,4.00
2017-11-30T19:44:48.568Z,3.90
2017-11-30T19:47:15.464Z,3.90
2017-11-30T19:49:42.342Z,3.90
2017-11-30T19:52:09.996Z,3.80
2017-11-30T19:54:36.955Z,3.80
2017-11-30T19:57:03.856Z,3.90
2017-11-30T19:59:30.771Z,4.00
2017-11-30T20:01:58.457Z,3.90
2017-11-30T20:04:25.343Z,3.90
2017-11-30T20:06:53.080Z,3.80
2017-11-30T20:09:19.976Z,3.80
2017-11-30T20:11:46.847Z,3.90
2017-11-30T20:14:13.753Z,4.00
2017-11-30T20:16:41.420Z,3.90
2017-11-30T20:19:08.322Z,3.90
2017-11-30T20:21:36.006Z,3.80
2017-11-30T20:24:02.938Z,3.80
2017-11-30T20:26:30.636Z,3.80
2017-11-30T20:28:59.101Z,3.80
2017-11-30T20:31:26.057Z,3.80
2017-11-30T20:33:53.179Z,3.70
2017-11-30T20:36:23.409Z,3.80
2017-11-30T20:38:50.337Z,3.70
2017-11-30T20:41:17.268Z,3.70
2017-11-30T20:43:44.975Z,3.70
2017-11-30T20:46:12.648Z,3.50
2017-11-30T20:48:39.597Z,3.50
2017-11-30T20:51:07.682Z,3.40
2017-11-30T20:53:35.621Z,3.50
2017-11-30T20:56:02.564Z,3.50
2017-11-30T20:58:29.486Z,3.50
2017-11-30T21:00:57.092Z,3.60
2017-11-30T21:03:23.984Z,3.60
2017-11-30T21:05:51.451Z,3.60
2017-11-30T21:08:18.752Z,3.60
2017-11-30T21:10:45.755Z,3.60
2017-11-30T21:13:12.687Z,3.70
2017-11-30T21:15:39.643Z,3.70
2017-11-30T21:18:06.544Z,3.80
2017-11-30T21:20:33.560Z,3.80
2017-11-30T21:23:01.448Z,3.50
2017-11-30T21:25:28.534Z,3.50
2017-11-30T21:27:55.572Z,3.30
2017-11-30T21:30:22.645Z,3.30
2017-11-30T21:32:50.704Z,3.40
2017-11-30T21:35:17.902Z,3.40
2017-11-30T21:37:45.588Z,3.30
2017-11-30T21:40:12.507Z,3.30
2017-11-30T21:42:39.704Z,3.20
2017-11-30T21:45:07.037Z,3.30
2017-11-30T21:47:34.838Z,3.50
2017-11-30T21:50:01.840Z,3.50
2017-11-30T21:52:28.783Z,3.50
2017-11-30T21:54:55.757Z,3.40
2017-11-30T21:57:23.427Z,3.20
2017-11-30T21:59:50.336Z,3.20
2017-11-30T22:02:17.180Z,3.20
2017-11-30T22:04:44.103Z,3.20
2017-11-30T22:07:11.087Z,3.20
2017-11-30T22:09:38.283Z,3.20
2017-11-30T22:12:05.343Z,3.20
2017-11-30T22:14:32.281Z,3.30
2017-11-30T22:16:59.125Z,3.20
2017-11-30T22:19:26.024Z,3.20
2017-11-30T22:21:53.662Z,3.10
2017-11-30T22:24:20.611Z,3.10
2017-11-30T22:26:47.535Z,3.10
2017-11-30T22:29:14.423Z,3.10
2017-11-30T22:31:41.427Z,3.00
2017-11-30T22:34:08.338Z,3.00
2017-11-30T22:36:35.268Z,3.10
2017-11-30T22:39:02.209Z,3.10
2017-11-30T22:41:29.114Z,3.20
2017-11-30T22:43:56.048Z,3.20
2017-11-30T22:46:23.044Z,3.30
2017-11-30T22:48:50.675Z,3.30
2017-11-30T22:51:17.571Z,3.30
2017-11-30T22:53:44.526Z,3.30
2017-11-30T22:56:11.480Z,3.20
2017-11-30T22:58:38.371Z,3.10
2017-11-30T23:01:06.171Z,3.10
2017-11-30T23:03:33.052Z,3.10
2017-11-30T23:06:00.766Z,3.10
2017-11-30T23:08:27.656Z,3.10
2017-11-30T23:10:54.523Z,3.20
2017-11-30T23:13:21.427Z,3.10
2017-11-30T23:15:48.356Z,3.10
2017-11-30T23:18:15.251Z,3.10
2017-11-30T23:20:42.163Z,3.10
2017-11-30T23:23:09.064Z,2.90
2017-11-30T23:25:36.032Z,2.90
2017-11-30T23:28:02.931Z,3.00
2017-11-30T23:30:29.892Z,3.00
2017-11-30T23:32:57.524Z,3.00
2017-11-30T23:35:24.451Z,3.00
2017-11-30T23:37:51.345Z,3.00
2017-11-30T23:40:18.260Z,3.00
2017-11-30T23:42:45.152Z,3.00
2017-11-30T23:45:12.104Z,3.10
2017-11-30T23:47:38.972Z,3.10
2017-11-30T23:50:05.875Z,3.10
2017-11-30T23:52:32.790Z,3.10
2017-11-30T23:54:59.764Z,3.00
2017-11-30T23:57:26.659Z,3.00
2017-11-30T23:59:53.535Z,2.90
